createdAt,value
2018-10-06T00:00:22.112Z,83.20
2018-10-06T00:02:51.024Z,83.50
2018-10-06T00:05:19.967Z,83.50
2018-10-06T00:07:48.578Z,83.50
2018-10-06T00:10:17.593Z,83.60
2018-10-06T00:12:46.255Z,82.90
2018-10-06T00:15:14.921Z,82.50
2018-10-06T00:17:43.545Z,83.50
2018-10-06T00:20:12.280Z,82.90
2018-10-06T00:22:40.904Z,83.70
2018-10-06T00:25:09.668Z,83.90
2018-10-06T00:27:38.541Z,83.90
2018-10-06T00:30:07.269Z,83.80
2018-10-06T00:32:35.924Z,83.70
2018-10-06T00:35:04.578Z,83.00
2018-10-06T00:37:33.329Z,83.20
2018-10-06T00:40:01.965Z,83.50
2018-10-06T00:42:30.685Z,83.20
2018-10-06T00:44:59.353Z,82.60
2018-10-06T00:47:28.126Z,82.20
2018-10-06T00:49:56.832Z,82.80
2018-10-06T00:52:25.516Z,83.50
2018-10-06T00:54:54.324Z,84.70
2018-10-06T00:57:22.916Z,84.80
2018-10-06T00:59:51.776Z,84.90
2018-10-06T01:02:20.434Z,85.00
2018-10-06T01:04:49.136Z,85.30
2018-10-06T01:07:18.008Z,84.80
2018-10-06T01:09:46.625Z,84.40
2018-10-06T01:12:15.388Z,84.60
2018-10-06T01:14:44.093Z,84.10
2018-10-06T01:17:12.862Z,84.40
2018-10-06T01:19:42.395Z,85.00
2018-10-06T01:22:11.201Z,85.10
2018-10-06T01:24:39.997Z,84.70
2018-10-06T01:27:08.752Z,84.40
2018-10-06T01:29:37.469Z,84.80
2018-10-06T01:32:06.305Z,85.00
2018-10-06T01:34:35.192Z,84.40
2018-10-06T01:37:03.975Z,84.70
2018-10-06T01:39:33.004Z,84.60
2018-10-06T01:42:02.006Z,84.40
2018-10-06T01:44:30.742Z,84.80
2018-10-06T01:46:59.429Z,84.70
2018-10-06T01:49:28.181Z,84.50
2018-10-06T01:51:57.089Z,84.40
2018-10-06T01:54:26.053Z,84.40
2018-10-06T01:56:54.780Z,84.60
2018-10-06T01:59:23.485Z,84.60
2018-10-06T02:01:52.172Z,84.70
2018-10-06T02:04:25.894Z,85.00
2018-10-06T02:06:56.133Z,85.50
2018-10-06T02:09:25.097Z,85.40
2018-10-06T02:11:53.729Z,85.00
2018-10-06T02:14:22.400Z,85.30
2018-10-06T02:16:51.228Z,85.70
2018-10-06T02:19:19.905Z,86.00
2018-10-06T02:21:48.572Z,85.90
2018-10-06T02:24:17.206Z,85.30
2018-10-06T02:26:45.904Z,85.60
2018-10-06T02:29:14.520Z,85.40
2018-10-06T02:31:43.186Z,85.70
2018-10-06T02:34:11.888Z,85.70
2018-10-06T02:36:40.514Z,85.60
2018-10-06T02:39:09.125Z,85.10
2018-10-06T02:41:37.925Z,85.00
2018-10-06T02:44:06.658Z,85.00
2018-10-06T02:46:35.350Z,85.40
2018-10-06T02:49:04.005Z,85.40
2018-10-06T02:51:32.629Z,85.10
2018-10-06T02:54:01.380Z,85.10
2018-10-06T02:56:30.017Z,85.70
2018-10-06T02:58:58.829Z,86.20
2018-10-06T03:01:27.564Z,86.00
2018-10-06T03:03:56.308Z,85.70
2018-10-06T03:06:25.024Z,87.30
2018-10-06T03:08:53.764Z,88.00
2018-10-06T03:11:22.461Z,88.00
2018-10-06T03:13:51.369Z,88.00
2018-10-06T03:16:20.175Z,87.70
2018-10-06T03:18:48.801Z,87.10
2018-10-06T03:21:17.497Z,86.70
2018-10-06T03:23:46.212Z,86.80
2018-10-06T03:26:14.936Z,87.20
2018-10-06T03:28:43.797Z,86.80
2018-10-06T03:31:12.450Z,86.70
2018-10-06T03:33:41.093Z,86.80
2018-10-06T03:36:09.901Z,87.60
2018-10-06T03:38:38.753Z,88.10
2018-10-06T03:41:07.604Z,88.30
2018-10-06T03:43:36.347Z,88.30
2018-10-06T03:46:05.211Z,88.20
2018-10-06T03:48:34.020Z,87.70
2018-10-06T03:51:02.744Z,87.70
2018-10-06T03:53:31.424Z,87.50
2018-10-06T03:56:00.260Z,87.30
2018-10-06T03:58:29.305Z,87.10
2018-10-06T04:00:58.200Z,87.00
2018-10-06T04:03:27.017Z,86.70
2018-10-06T04:05:55.804Z,86.50
2018-10-06T04:08:24.533Z,86.70
2018-10-06T04:10:53.421Z,87.30
2018-10-06T04:13:22.129Z,88.00
2018-10-06T04:15:50.898Z,87.60
2018-10-06T04:18:19.581Z,88.60
2018-10-06T04:20:48.408Z,89.00
2018-10-06T04:23:17.059Z,88.20
2018-10-06T04:25:45.813Z,88.40
2018-10-06T04:28:14.472Z,88.60
2018-10-06T04:30:43.125Z,88.90
2018-10-06T04:33:11.737Z,89.30
2018-10-06T04:35:40.374Z,89.40
2018-10-06T04:38:09.101Z,89.80
2018-10-06T04:40:37.696Z,89.70
2018-10-06T04:43:06.798Z,89.60
2018-10-06T04:45:35.517Z,89.60
2018-10-06T04:48:04.300Z,89.80
2018-10-06T04:50:33.003Z,90.10
2018-10-06T04:53:02.069Z,90.00
2018-10-06T04:55:30.785Z,90.00
2018-10-06T04:57:59.424Z,90.10
2018-10-06T05:00:28.075Z,90.20
2018-10-06T05:02:56.766Z,90.00
2018-10-06T05:05:25.395Z,90.00
2018-10-06T05:07:54.245Z,89.90
2018-10-06T05:10:23.101Z,89.70
2018-10-06T05:12:52.057Z,90.00
2018-10-06T05:15:20.764Z,90.00
2018-10-06T05:17:49.443Z,89.80
2018-10-06T05:20:18.448Z,89.70
2018-10-06T05:22:47.563Z,89.80
2018-10-06T05:25:16.213Z,89.70
2018-10-06T05:27:45.122Z,90.00
2018-10-06T05:30:13.969Z,89.70
2018-10-06T05:32:42.600Z,89.90
2018-10-06T05:35:11.550Z,89.90
2018-10-06T05:37:40.275Z,89.70
2018-10-06T05:40:08.974Z,89.40
2018-10-06T05:42:37.741Z,89.40
2018-10-06T05:45:06.836Z,89.30
2018-10-06T05:47:35.484Z,88.90
2018-10-06T05:50:04.490Z,88.60
2018-10-06T05:52:33.274Z,88.50
2018-10-06T05:55:02.081Z,88.80
2018-10-06T05:57:30.867Z,89.00
2018-10-06T05:59:59.650Z,88.80
2018-10-06T06:02:28.329Z,89.20
2018-10-06T06:04:57.197Z,89.70
2018-10-06T06:07:25.825Z,89.30
2018-10-06T06:09:54.700Z,89.40
2018-10-06T06:12:23.649Z,89.90
2018-10-06T06:14:52.557Z,90.10
2018-10-06T06:17:21.418Z,90.30
2018-10-06T06:19:50.369Z,90.50
2018-10-06T06:22:19.312Z,90.40
2018-10-06T06:24:48.014Z,90.30
2018-10-06T06:27:16.716Z,90.30
2018-10-06T06:29:45.309Z,90.10
2018-10-06T06:32:14.034Z,90.00
2018-10-06T06:34:43.045Z,89.90
2018-10-06T06:37:11.845Z,90.00
2018-10-06T06:39:40.548Z,90.00
2018-10-06T06:42:09.598Z,90.20
2018-10-06T06:44:38.649Z,80.70
2018-10-06T06:47:08.011Z,80.70
2018-10-06T06:49:36.974Z,81.10
2018-10-06T06:52:05.965Z,81.10
2018-10-06T06:54:34.813Z,80.40
2018-10-06T06:57:03.516Z,79.40
2018-10-06T06:59:32.328Z,78.20
2018-10-06T07:02:01.224Z,77.70
2018-10-06T07:04:29.961Z,77.70
2018-10-06T07:06:58.811Z,77.90
2018-10-06T07:09:27.532Z,77.60
2018-10-06T07:11:56.156Z,77.40
2018-10-06T07:14:24.917Z,76.50
2018-10-06T07:16:53.713Z,75.40
2018-10-06T07:19:22.497Z,73.50
2018-10-06T07:21:51.168Z,72.50
2018-10-06T07:24:20.205Z,72.20
2018-10-06T07:26:49.013Z,71.20
2018-10-06T07:29:17.712Z,70.40
2018-10-06T07:31:46.488Z,69.90
2018-10-06T07:34:15.300Z,70.30
2018-10-06T07:36:44.168Z,69.20
2018-10-06T07:39:13.096Z,68.50
2018-10-06T07:41:41.905Z,67.70
2018-10-06T07:44:10.649Z,67.40
2018-10-06T07:46:39.493Z,67.60
2018-10-06T07:49:08.451Z,66.10
2018-10-06T07:51:37.219Z,66.20
2018-10-06T07:54:06.004Z,66.20
2018-10-06T07:56:34.733Z,66.10
2018-10-06T07:59:03.644Z,65.10
2018-10-06T08:01:32.711Z,62.90
2018-10-06T08:04:01.583Z,60.20
2018-10-06T08:06:30.386Z,60.40
2018-10-06T08:08:59.365Z,60.30
2018-10-06T08:11:28.184Z,61.70
2018-10-06T08:13:57.274Z,60.60
2018-10-06T08:16:26.195Z,61.00
2018-10-06T08:18:55.034Z,60.80
2018-10-06T08:21:23.698Z,60.60
2018-10-06T08:23:52.529Z,61.10
2018-10-06T08:26:21.677Z,61.70
2018-10-06T08:28:50.420Z,60.30
2018-10-06T08:31:19.564Z,61.40
2018-10-06T08:33:48.429Z,59.50
2018-10-06T08:36:17.308Z,56.00
2018-10-06T08:38:46.254Z,56.10
2018-10-06T08:41:15.022Z,55.70
2018-10-06T08:43:43.921Z,57.10
2018-10-06T08:46:12.771Z,60.20
2018-10-06T08:48:41.597Z,58.90
2018-10-06T08:51:10.366Z,53.90
2018-10-06T08:53:39.340Z,56.80
2018-10-06T08:56:08.150Z,53.60
2018-10-06T08:58:36.820Z,50.50
2018-10-06T09:01:05.762Z,48.90
2018-10-06T09:03:34.517Z,52.20
2018-10-06T09:06:03.418Z,51.70
2018-10-06T09:08:32.252Z,50.70
2018-10-06T09:11:01.186Z,52.10
2018-10-06T09:13:29.996Z,49.60
2018-10-06T09:15:58.740Z,49.30
2018-10-06T09:18:27.509Z,49.50
2018-10-06T09:20:56.221Z,49.90
2018-10-06T09:23:24.984Z,49.90
2018-10-06T09:25:53.788Z,50.10
2018-10-06T09:28:22.620Z,49.60
2018-10-06T09:30:51.344Z,49.60
2018-10-06T09:33:20.413Z,50.60
2018-10-06T09:35:49.144Z,41.70
2018-10-06T09:38:17.966Z,41.80
2018-10-06T09:40:46.865Z,41.00
2018-10-06T09:43:15.593Z,40.00
2018-10-06T09:45:44.501Z,41.00
2018-10-06T09:48:13.263Z,42.70
2018-10-06T10:30:31.593Z,51.10
2018-10-06T10:33:00.304Z,41.40
2018-10-06T10:35:28.949Z,41.10
2018-10-06T10:37:57.813Z,41.90
2018-10-06T10:40:26.645Z,40.50
2018-10-06T10:42:55.978Z,40.70
2018-10-06T10:45:24.716Z,41.10
2018-10-06T10:47:53.537Z,40.80
2018-10-06T10:50:22.399Z,40.20
2018-10-06T10:52:51.412Z,39.90
2018-10-06T10:55:20.251Z,40.20
2018-10-06T10:57:49.033Z,40.40
2018-10-06T11:00:18.067Z,40.90
2018-10-06T11:02:46.834Z,41.20
2018-10-06T11:05:15.663Z,40.90
2018-10-06T11:07:44.481Z,41.30
2018-10-06T11:10:13.266Z,40.60
2018-10-06T11:12:42.091Z,40.60
2018-10-06T11:15:10.794Z,41.10
2018-10-06T11:17:39.555Z,40.70
2018-10-06T11:20:08.352Z,42.40
2018-10-06T11:22:37.151Z,40.60
2018-10-06T11:25:06.309Z,40.70
2018-10-06T11:27:35.029Z,40.40
2018-10-06T11:30:03.922Z,41.10
2018-10-06T11:32:32.761Z,40.80
2018-10-06T11:35:01.419Z,41.40
2018-10-06T11:37:30.382Z,41.80
2018-10-06T11:39:59.506Z,41.90
2018-10-06T11:42:28.221Z,41.10
2018-10-06T11:44:57.108Z,42.70
2018-10-06T11:47:27.045Z,41.20
2018-10-06T11:49:56.330Z,41.40
2018-10-06T11:52:25.222Z,41.20
2018-10-06T11:54:54.417Z,41.60
2018-10-06T11:57:23.206Z,41.20
2018-10-06T11:59:52.287Z,41.90
2018-10-06T12:02:20.997Z,42.40
2018-10-06T12:04:49.644Z,42.00
2018-10-06T12:07:18.636Z,41.60
2018-10-06T12:09:47.345Z,41.80
2018-10-06T12:12:16.129Z,41.40
2018-10-06T12:14:45.054Z,41.30
2018-10-06T12:17:13.967Z,41.10
2018-10-06T12:19:42.678Z,41.30
2018-10-06T12:22:11.360Z,41.20
2018-10-06T12:24:40.042Z,41.30
2018-10-06T12:27:08.737Z,41.70
2018-10-06T12:29:37.529Z,41.20
2018-10-06T12:32:06.477Z,42.40
2018-10-06T12:34:35.355Z,42.20
2018-10-06T12:37:04.297Z,41.50
2018-10-06T12:39:33.190Z,41.10
2018-10-06T12:42:01.964Z,42.10
2018-10-06T12:44:30.682Z,41.20
2018-10-06T12:46:59.547Z,41.30
2018-10-06T12:49:28.426Z,41.40
2018-10-06T12:51:57.360Z,41.70
2018-10-06T12:54:26.207Z,41.80
2018-10-06T12:56:54.844Z,43.00
2018-10-06T12:59:23.649Z,42.10
2018-10-06T13:01:52.325Z,42.70
2018-10-06T13:04:21.166Z,42.10
2018-10-06T13:06:49.905Z,41.80
2018-10-06T13:09:18.743Z,42.40
2018-10-06T13:11:47.418Z,42.40
2018-10-06T13:14:16.152Z,42.40
2018-10-06T13:16:44.852Z,43.80
2018-10-06T13:19:13.714Z,42.80
2018-10-06T13:21:42.658Z,42.40
2018-10-06T13:24:11.404Z,42.40
2018-10-06T13:26:40.558Z,42.40
2018-10-06T13:29:09.357Z,42.10
2018-10-06T13:31:38.378Z,41.70
2018-10-06T13:34:07.083Z,42.60
2018-10-06T13:36:35.922Z,41.40
2018-10-06T13:39:05.948Z,41.30
2018-10-06T13:41:34.857Z,41.10
2018-10-06T13:44:03.671Z,41.00
2018-10-06T13:46:32.524Z,41.20
2018-10-06T13:49:01.251Z,41.20
2018-10-06T13:51:29.903Z,41.60
2018-10-06T13:53:58.701Z,42.80
2018-10-06T13:56:27.610Z,43.00
2018-10-06T13:58:56.367Z,41.70
2018-10-06T14:01:25.566Z,41.50
2018-10-06T14:03:54.369Z,41.80
2018-10-06T14:06:23.018Z,41.80
2018-10-06T14:08:51.748Z,41.80
2018-10-06T14:11:20.403Z,41.50
2018-10-06T14:13:49.104Z,42.10
2018-10-06T14:16:17.786Z,41.20
2018-10-06T14:18:46.557Z,41.20
2018-10-06T14:21:15.555Z,40.90
2018-10-06T14:23:44.348Z,39.60
2018-10-06T14:26:13.432Z,40.30
2018-10-06T14:28:42.135Z,40.00
2018-10-06T14:31:10.961Z,40.30
2018-10-06T14:33:39.843Z,39.60
2018-10-06T14:36:08.633Z,40.30
2018-10-06T14:38:37.360Z,39.20
2018-10-06T14:41:06.541Z,39.90
2018-10-06T14:43:35.295Z,39.40
2018-10-06T14:46:04.068Z,40.90
2018-10-06T14:48:32.987Z,41.50
2018-10-06T14:51:01.626Z,39.50
2018-10-06T14:53:30.555Z,40.00
2018-10-06T14:55:59.505Z,40.30
2018-10-06T14:58:28.341Z,40.00
2018-10-06T15:00:56.940Z,39.50
2018-10-06T15:03:25.913Z,39.10
2018-10-06T15:05:54.725Z,39.10
2018-10-06T15:08:23.657Z,39.20
2018-10-06T15:10:52.450Z,40.50
2018-10-06T15:13:21.287Z,40.60
2018-10-06T15:15:50.179Z,40.30
2018-10-06T15:18:18.848Z,40.70
2018-10-06T15:20:47.583Z,40.80
2018-10-06T15:23:16.501Z,39.40
2018-10-06T15:25:45.232Z,39.70
2018-10-06T15:28:14.043Z,39.70
2018-10-06T15:30:42.830Z,40.10
2018-10-06T15:33:11.613Z,40.40
2018-10-06T15:38:08.649Z,39.50
2018-10-06T15:40:37.336Z,40.00
2018-10-06T15:43:06.428Z,39.70
2018-10-06T15:45:35.342Z,39.80
2018-10-06T15:48:04.114Z,39.90
2018-10-06T15:50:32.908Z,40.20
2018-10-06T15:53:01.646Z,41.00
2018-10-06T15:55:30.481Z,41.80
2018-10-06T15:57:59.278Z,41.40
2018-10-06T16:00:28.160Z,42.50
2018-10-06T16:02:57.004Z,43.20
2018-10-06T16:05:25.712Z,43.90
2018-10-06T16:07:54.728Z,43.80
2018-10-06T16:10:23.450Z,43.80
2018-10-06T16:12:52.153Z,44.40
2018-10-06T16:15:20.977Z,44.00
2018-10-06T16:17:49.909Z,43.50
2018-10-06T16:20:18.743Z,44.50
2018-10-06T16:22:47.413Z,44.70
2018-10-06T16:25:16.349Z,45.60
2018-10-06T16:27:45.257Z,45.90
2018-10-06T16:30:14.254Z,46.70
2018-10-06T16:32:42.977Z,47.20
2018-10-06T16:35:11.813Z,48.70
2018-10-06T16:37:40.588Z,50.90
2018-10-06T16:40:09.316Z,52.00
2018-10-06T16:42:38.045Z,52.10
2018-10-06T16:45:06.965Z,51.90
2018-10-06T16:47:35.947Z,52.20
2018-10-06T16:50:04.627Z,52.20
2018-10-06T16:52:33.243Z,53.10
2018-10-06T16:55:02.103Z,52.30
2018-10-06T16:57:30.932Z,52.90
2018-10-06T16:59:59.718Z,52.40
2018-10-06T17:02:28.393Z,53.30
2018-10-06T17:04:57.222Z,54.30
2018-10-06T17:07:25.917Z,53.60
2018-10-06T17:09:54.884Z,55.40
2018-10-06T17:12:23.913Z,57.90
2018-10-06T17:14:52.715Z,57.60
2018-10-06T17:17:21.297Z,56.70
2018-10-06T17:19:50.145Z,60.20
2018-10-06T17:22:18.859Z,60.40
2018-10-06T17:24:47.683Z,59.60
2018-10-06T17:27:16.392Z,58.80
2018-10-06T17:29:45.074Z,58.80
2018-10-06T17:32:13.709Z,59.80
2018-10-06T17:34:42.565Z,60.20
2018-10-06T17:37:11.249Z,60.00
2018-10-06T17:39:40.055Z,60.70
2018-10-06T17:42:09.010Z,59.20
2018-10-06T17:44:37.890Z,60.50
2018-10-06T17:47:07.206Z,60.60
2018-10-06T17:49:35.937Z,60.90
2018-10-06T17:52:05.144Z,61.50
2018-10-06T17:54:33.809Z,62.30
2018-10-06T17:57:02.674Z,62.20
2018-10-06T17:59:31.453Z,62.00
2018-10-06T18:02:00.145Z,62.00
2018-10-06T18:04:29.101Z,63.30
2018-10-06T18:06:57.915Z,64.50
2018-10-06T18:09:26.784Z,64.50
2018-10-06T18:11:56.611Z,64.90
2018-10-06T18:14:25.964Z,64.60
2018-10-06T18:16:56.028Z,64.70
2018-10-06T18:19:24.810Z,65.00
2018-10-06T18:21:53.608Z,65.70
2018-10-06T18:24:22.561Z,65.70
2018-10-06T18:26:51.191Z,65.20
2018-10-06T18:29:19.918Z,65.40
2018-10-06T18:31:48.813Z,65.30
2018-10-06T18:34:17.540Z,65.20
2018-10-06T18:36:46.370Z,65.10
2018-10-06T18:39:15.191Z,65.10
2018-10-06T18:41:44.081Z,66.30
2018-10-06T18:44:12.793Z,67.00
2018-10-06T18:46:41.485Z,67.30
2018-10-06T18:49:10.149Z,67.70
2018-10-06T18:51:38.811Z,67.50
2018-10-06T18:54:07.597Z,67.20
2018-10-06T18:56:36.311Z,67.10
2018-10-06T18:59:05.953Z,66.90
2018-10-06T19:01:35.260Z,67.60
2018-10-06T19:04:04.044Z,67.70
2018-10-06T19:06:32.814Z,67.80
2018-10-06T19:09:02.645Z,67.90
2018-10-06T19:11:31.558Z,69.10
2018-10-06T19:14:00.391Z,69.60
2018-10-06T19:16:29.432Z,69.40
2018-10-06T19:18:58.128Z,69.30
2018-10-06T19:21:26.984Z,69.30
2018-10-06T19:23:55.669Z,70.40
2018-10-06T19:26:25.517Z,70.10
2018-10-06T19:28:54.433Z,70.00
2018-10-06T19:31:23.239Z,69.40
2018-10-06T19:33:52.013Z,69.10
2018-10-06T19:36:20.828Z,68.40
2018-10-06T19:38:49.707Z,68.30
2018-10-06T19:41:18.368Z,67.40
2018-10-06T19:43:47.117Z,68.00
2018-10-06T19:46:15.905Z,69.20
2018-10-06T19:48:44.876Z,70.00
2018-10-06T19:51:13.652Z,69.40
2018-10-06T19:53:42.755Z,69.70
2018-10-06T19:56:11.510Z,69.90
2018-10-06T19:58:40.384Z,70.20
2018-10-06T20:01:09.177Z,70.70
2018-10-06T20:03:38.105Z,71.60
2018-10-06T20:06:07.085Z,72.60
2018-10-06T20:08:37.467Z,72.70
2018-10-06T20:11:06.681Z,72.70
2018-10-06T20:13:35.719Z,72.00
2018-10-06T20:16:04.510Z,72.20
2018-10-06T20:18:33.580Z,71.90
2018-10-06T20:21:02.301Z,73.20
2018-10-06T20:23:30.996Z,72.80
2018-10-06T20:25:59.881Z,73.10
2018-10-06T20:28:28.594Z,72.80
2018-10-06T20:30:57.585Z,73.90
2018-10-06T20:33:26.239Z,73.10
2018-10-06T20:35:54.941Z,73.40
2018-10-06T20:38:23.844Z,73.30
2018-10-06T20:40:52.653Z,74.50
2018-10-06T20:43:21.321Z,74.50
2018-10-06T20:45:50.422Z,74.50
2018-10-06T20:48:19.301Z,74.80
2018-10-06T20:50:48.012Z,74.70
2018-10-06T20:53:16.943Z,74.60
2018-10-06T20:55:45.595Z,74.80
2018-10-06T20:58:14.293Z,75.20
2018-10-06T21:00:43.167Z,75.50
2018-10-06T21:03:11.811Z,76.20
2018-10-06T21:05:40.517Z,76.20
2018-10-06T21:08:09.277Z,76.00
2018-10-06T21:10:38.047Z,76.20
2018-10-06T21:13:06.751Z,76.10
2018-10-06T21:15:35.544Z,77.00
2018-10-06T21:18:04.337Z,77.20
2018-10-06T21:20:33.333Z,76.70
2018-10-06T21:23:02.165Z,76.40
2018-10-06T21:25:30.921Z,76.20
2018-10-06T21:27:59.682Z,76.50
2018-10-06T21:30:28.370Z,77.00
2018-10-06T21:32:57.178Z,77.10
2018-10-06T21:35:25.976Z,77.70
2018-10-06T21:37:54.710Z,77.60
2018-10-06T21:40:23.393Z,77.70
2018-10-06T21:42:52.335Z,78.00
2018-10-06T21:45:21.290Z,77.90
2018-10-06T21:47:50.117Z,77.90
2018-10-06T21:50:19.465Z,77.60
2018-10-06T21:52:48.122Z,77.00
2018-10-06T21:55:16.841Z,77.10
2018-10-06T21:57:45.497Z,77.10
2018-10-06T22:00:14.438Z,76.80
2018-10-06T22:02:43.162Z,77.00
2018-10-06T22:05:12.169Z,76.90
2018-10-06T22:07:40.931Z,77.10
2018-10-06T22:10:09.656Z,77.60
2018-10-06T22:12:38.421Z,77.90
2018-10-06T22:15:07.582Z,78.20
2018-10-06T22:17:36.369Z,78.40
2018-10-06T22:20:05.484Z,78.40
2018-10-06T22:22:34.344Z,78.40
2018-10-06T22:25:02.994Z,78.20
2018-10-06T22:27:31.668Z,78.30
2018-10-06T22:30:00.566Z,78.70
2018-10-06T22:32:29.221Z,79.40
2018-10-06T22:34:57.816Z,79.50
2018-10-06T22:37:26.736Z,79.50
2018-10-06T22:39:55.448Z,79.50
2018-10-06T22:42:24.293Z,79.70
2018-10-06T22:44:53.188Z,80.20
2018-10-06T22:47:21.817Z,80.60
2018-10-06T22:49:50.520Z,81.00
2018-10-06T22:52:19.355Z,81.40
2018-10-06T22:54:47.978Z,81.40
2018-10-06T22:57:16.728Z,81.70
2018-10-06T22:59:45.377Z,81.60
2018-10-06T23:02:14.112Z,81.10
2018-10-06T23:04:43.032Z,81.10
2018-10-06T23:07:11.907Z,80.90
2018-10-06T23:09:40.709Z,80.60
2018-10-06T23:12:09.419Z,80.40
2018-10-06T23:14:38.095Z,80.50
2018-10-06T23:17:06.767Z,80.30
2018-10-06T23:19:35.452Z,80.50
2018-10-06T23:22:04.143Z,80.50
2018-10-06T23:24:32.896Z,80.40
2018-10-06T23:27:01.497Z,80.00
2018-10-06T23:29:30.558Z,79.70
2018-10-06T23:31:59.405Z,79.40
2018-10-06T23:34:28.096Z,79.70
2018-10-06T23:36:56.744Z,80.00
2018-10-06T23:39:25.389Z,80.10
2018-10-06T23:41:54.117Z,80.30
2018-10-06T23:44:22.782Z,80.20
2018-10-06T23:46:51.470Z,80.50
2018-10-06T23:49:20.305Z,80.20
2018-10-06T23:51:49.089Z,80.60
2018-10-06T23:54:17.864Z,80.10
2018-10-06T23:56:46.541Z,79.20
2018-10-06T23:59:15.348Z,78.70
